Saturday, January 20, 2018, 9:23 AM GMT
Back to Local

CWAF, Ile Rouge Meteorological Aeronautical Presentation System

Location: , , Canada Lat: 48.083
Local Time: 9:23 AM GMT ( 9:23 GMT) Lon: -69.55
Time Zone: GMT Elev: 16 ft

Show me the last for .
Show Coded

Time T Td Feel RH Dir Speed Gust Alt SLP Vis Weather Sky Remarks
2018-01-20 09:00 31 30 14 96 200° 33 40 - - 0 Peak wind: 42 mph (37 kts) from 200° at 38 min
2018-01-20 08:00 30 29 12 97 200° 30 40 - - 0 Peak wind: 40 mph (35 kts) from 190° at 52 min
2018-01-20 07:00 30 29 13 96 200° 29 37 - - 0 Peak wind: 36 mph (32 kts) from 200° at 30 min
2018-01-20 06:00 29 27 13 90 200° 30 37 - - 0 Peak wind: 37 mph (33 kts) from 200° at 30 min
2018-01-20 05:00 29 27 13 91 200° 29 35 - - 0 Peak wind: 36 mph (32 kts) from 200° at 34 min
2018-01-20 04:00 29 26 13 90 210° 29 - - - 0 Peak wind: 34 mph (30 kts) from 210° at 46 min
2018-01-20 03:00 26 24 16 91 200° 12 - - - 0 None
2018-01-20 02:00 23 20 - 87 140° 2 - - - 0 None
2018-01-20 01:00 21 17 - 84 70° 2 - - - 0 None
2018-01-20 00:00 21 16 - 83 130° 2 - - - 0 None
2018-01-19 23:00 20 16 14 82 110° 5 - - - 0 None
2018-01-19 22:00 20 15 15 80 130° 3 - - - 0 None
2018-01-19 21:00 20 14 13 79 140° 5 - - - 0 None
2018-01-19 20:00 19 15 - 82 90° 1 - - - 0 None
2018-01-19 19:00 19 15 - 83 90° 2 - - - 0 None
2018-01-19 18:00 19 13 12 79 60° 5 - - - 0 None
2018-01-19 17:00 20 13 15 73 80° 3 - - - 0 None
2018-01-19 16:00 18 14 8 83 70° 7 - - - 0 None
2018-01-19 15:00 17 14 8 84 20° 7 - - - 0 None
2018-01-19 14:00 16 11 9 81 20° 5 - - - 0 None
2018-01-19 13:00 15 10 5 80 10° 8 - - - 0 None
2018-01-19 12:00 16 11 5 81 10° 8 - - - 0 None
2018-01-19 11:00 17 12 7 80 330° 7 - - - 0 None
2018-01-19 10:00 17 11 5 78 320° 10 - - - 0 None

Support USWX by starting your Amazon purchase here.